sensor_id;sensor_type;location;lat;lon;timestamp;P1;durP1;ratioP1;P2;durP2;ratioP2
19507;SDS011;40157;42.566;27.526;2023-02-03T00:00:20;4.70;;;1.90;;
19507;SDS011;40157;42.566;27.526;2023-02-03T00:02:20;9.77;;;3.17;;
19507;SDS011;40157;42.566;27.526;2023-02-03T00:04:21;9.90;;;4.13;;
19507;SDS011;40157;42.566;27.526;2023-02-03T00:06:21;12.70;;;5.97;;
19507;SDS011;40157;42.566;27.526;2023-02-03T00:08:22;11.87;;;6.47;;
19507;SDS011;40157;42.566;27.526;2023-02-03T00:10:23;12.43;;;4.60;;
19507;SDS011;40157;42.566;27.526;2023-02-03T00:12:23;13.63;;;4.80;;
19507;SDS011;40157;42.566;27.526;2023-02-03T00:14:24;8.60;;;4.03;;
19507;SDS011;40157;42.566;27.526;2023-02-03T00:16:24;6.57;;;2.77;;
19507;SDS011;40157;42.566;27.526;2023-02-03T00:18:24;3.00;;;1.67;;
19507;SDS011;40157;42.566;27.526;2023-02-03T00:20:25;3.47;;;1.87;;
19507;SDS011;40157;42.566;27.526;2023-02-03T00:22:26;5.37;;;2.10;;
19507;SDS011;40157;42.566;27.526;2023-02-03T00:24:26;8.17;;;2.53;;
19507;SDS011;40157;42.566;27.526;2023-02-03T00:26:26;4.40;;;2.37;;
19507;SDS011;40157;42.566;27.526;2023-02-03T00:28:27;4.77;;;2.10;;
19507;SDS011;40157;42.566;27.526;2023-02-03T00:30:32;4.33;;;1.97;;
19507;SDS011;40157;42.566;27.526;2023-02-03T00:32:34;7.50;;;2.30;;
19507;SDS011;40157;42.566;27.526;2023-02-03T00:34:35;2.53;;;1.63;;
19507;SDS011;40157;42.566;27.526;2023-02-03T00:36:35;4.40;;;1.80;;
19507;SDS011;40157;42.566;27.526;2023-02-03T00:38:36;3.03;;;1.60;;
19507;SDS011;40157;42.566;27.526;2023-02-03T00:40:36;3.37;;;1.97;;
19507;SDS011;40157;42.566;27.526;2023-02-03T00:42:37;2.63;;;1.80;;
19507;SDS011;40157;42.566;27.526;2023-02-03T00:44:37;4.60;;;1.67;;
19507;SDS011;40157;42.566;27.526;2023-02-03T00:46:37;3.30;;;1.80;;
19507;SDS011;40157;42.566;27.526;2023-02-03T00:48:38;3.97;;;1.83;;
19507;SDS011;40157;42.566;27.526;2023-02-03T00:50:39;3.87;;;1.40;;
19507;SDS011;40157;42.566;27.526;2023-02-03T00:52:39;5.20;;;1.93;;
19507;SDS011;40157;42.566;27.526;2023-02-03T00:54:40;4.17;;;1.80;;
19507;SDS011;40157;42.566;27.526;2023-02-03T00:56:40;5.90;;;2.10;;
19507;SDS011;40157;42.566;27.526;2023-02-03T00:58:41;3.03;;;1.60;;
19507;SDS011;40157;42.566;27.526;2023-02-03T01:00:41;2.67;;;1.57;;
19507;SDS011;40157;42.566;27.526;2023-02-03T01:02:42;4.17;;;1.67;;
19507;SDS011;40157;42.566;27.526;2023-02-03T01:04:42;3.47;;;1.73;;
19507;SDS011;40157;42.566;27.526;2023-02-03T01:06:43;4.03;;;1.53;;
19507;SDS011;40157;42.566;27.526;2023-02-03T01:08:43;2.30;;;1.63;;
19507;SDS011;40157;42.566;27.526;2023-02-03T01:10:44;3.13;;;1.70;;
19507;SDS011;40157;42.566;27.526;2023-02-03T01:12:44;2.10;;;1.60;;
19507;SDS011;40157;42.566;27.526;2023-02-03T01:14:45;17.47;;;2.07;;
19507;SDS011;40157;42.566;27.526;2023-02-03T01:16:45;2.57;;;1.73;;
19507;SDS011;40157;42.566;27.526;2023-02-03T01:18:46;6.10;;;2.30;;
19507;SDS011;40157;42.566;27.526;2023-02-03T01:20:46;3.33;;;2.00;;
19507;SDS011;40157;42.566;27.526;2023-02-03T01:22:47;4.47;;;1.73;;
19507;SDS011;40157;42.566;27.526;2023-02-03T01:24:47;5.43;;;2.33;;
19507;SDS011;40157;42.566;27.526;2023-02-03T01:26:48;5.67;;;2.13;;
19507;SDS011;40157;42.566;27.526;2023-02-03T01:30:56;10.00;;;3.53;;
19507;SDS011;40157;42.566;27.526;2023-02-03T01:33:07;11.00;;;3.73;;
19507;SDS011;40157;42.566;27.526;2023-02-03T01:35:07;7.30;;;3.30;;
19507;SDS011;40157;42.566;27.526;2023-02-03T01:37:08;5.67;;;2.67;;
19507;SDS011;40157;42.566;27.526;2023-02-03T01:39:08;4.77;;;3.07;;
19507;SDS011;40157;42.566;27.526;2023-02-03T01:41:10;5.07;;;2.80;;
19507;SDS011;40157;42.566;27.526;2023-02-03T01:43:27;6.30;;;2.70;;
19507;SDS011;40157;42.566;27.526;2023-02-03T01:45:32;4.17;;;2.23;;
19507;SDS011;40157;42.566;27.526;2023-02-03T01:47:33;6.53;;;2.93;;
19507;SDS011;40157;42.566;27.526;2023-02-03T01:49:48;5.13;;;2.40;;
19507;SDS011;40157;42.566;27.526;2023-02-03T01:51:58;4.43;;;2.63;;
19507;SDS011;40157;42.566;27.526;2023-02-03T01:53:59;7.27;;;2.80;;
19507;SDS011;40157;42.566;27.526;2023-02-03T01:56:00;11.60;;;3.83;;
19507;SDS011;40157;42.566;27.526;2023-02-03T01:58:15;8.67;;;3.20;;
19507;SDS011;40157;42.566;27.526;2023-02-03T02:00:23;5.33;;;2.67;;
19507;SDS011;40157;42.566;27.526;2023-02-03T02:02:24;7.63;;;3.13;;
19507;SDS011;40157;42.566;27.526;2023-02-03T02:04:28;7.73;;;2.83;;
19507;SDS011;40157;42.566;27.526;2023-02-03T02:06:37;3.60;;;2.07;;
19507;SDS011;40157;42.566;27.526;2023-02-03T02:08:37;6.23;;;2.90;;
19507;SDS011;40157;42.566;27.526;2023-02-03T02:10:40;5.17;;;2.50;;
19507;SDS011;40157;42.566;27.526;2023-02-03T02:12:41;9.37;;;3.27;;
19507;SDS011;40157;42.566;27.526;2023-02-03T02:14:41;6.50;;;2.90;;
19507;SDS011;40157;42.566;27.526;2023-02-03T02:16:48;8.70;;;3.93;;
19507;SDS011;40157;42.566;27.526;2023-02-03T02:32:42;5.40;;;3.13;;
19507;SDS011;40157;42.566;27.526;2023-02-03T02:35:00;13.27;;;3.60;;
19507;SDS011;40157;42.566;27.526;2023-02-03T02:37:18;11.43;;;3.80;;
19507;SDS011;40157;42.566;27.526;2023-02-03T02:41:48;3.40;;;2.07;;
19507;SDS011;40157;42.566;27.526;2023-02-03T02:46:31;3.47;;;1.77;;
19507;SDS011;40157;42.566;27.526;2023-02-03T02:48:51;3.63;;;1.73;;
19507;SDS011;40157;42.566;27.526;2023-02-03T02:50:54;3.27;;;2.13;;
19507;SDS011;40157;42.566;27.526;2023-02-03T02:52:57;4.70;;;2.43;;
19507;SDS011;40157;42.566;27.526;2023-02-03T02:55:04;6.30;;;2.77;;
19507;SDS011;40157;42.566;27.526;2023-02-03T02:57:10;4.33;;;1.97;;
19507;SDS011;40157;42.566;27.526;2023-02-03T02:59:13;8.10;;;3.03;;
19507;SDS011;40157;42.566;27.526;2023-02-03T03:01:14;10.63;;;2.73;;
19507;SDS011;40157;42.566;27.526;2023-02-03T03:03:16;5.40;;;2.53;;
19507;SDS011;40157;42.566;27.526;2023-02-03T03:05:21;7.93;;;2.43;;
19507;SDS011;40157;42.566;27.526;2023-02-03T03:07:23;5.83;;;2.50;;
19507;SDS011;40157;42.566;27.526;2023-02-03T03:09:31;2.57;;;1.60;;
19507;SDS011;40157;42.566;27.526;2023-02-03T03:11:45;3.53;;;2.00;;
19507;SDS011;40157;42.566;27.526;2023-02-03T03:13:52;4.27;;;1.90;;
19507;SDS011;40157;42.566;27.526;2023-02-03T03:15:54;3.37;;;1.70;;
19507;SDS011;40157;42.566;27.526;2023-02-03T03:18:03;3.03;;;1.60;;
19507;SDS011;40157;42.566;27.526;2023-02-03T03:20:12;4.33;;;2.00;;
19507;SDS011;40157;42.566;27.526;2023-02-03T03:22:16;5.20;;;2.37;;
19507;SDS011;40157;42.566;27.526;2023-02-03T03:24:26;5.00;;;2.67;;
19507;SDS011;40157;42.566;27.526;2023-02-03T03:26:35;5.97;;;2.20;;
19507;SDS011;40157;42.566;27.526;2023-02-03T03:28:46;5.77;;;2.50;;
19507;SDS011;40157;42.566;27.526;2023-02-03T03:30:49;6.37;;;2.57;;
19507;SDS011;40157;42.566;27.526;2023-02-03T03:32:50;5.67;;;2.53;;
19507;SDS011;40157;42.566;27.526;2023-02-03T03:34:50;2.97;;;1.77;;
19507;SDS011;40157;42.566;27.526;2023-02-03T03:41:40;2.70;;;1.87;;
19507;SDS011;40157;42.566;27.526;2023-02-03T03:43:56;4.63;;;2.30;;
19507;SDS011;40157;42.566;27.526;2023-02-03T03:46:03;4.80;;;2.37;;
19507;SDS011;40157;42.566;27.526;2023-02-03T03:48:22;4.87;;;1.93;;
19507;SDS011;40157;42.566;27.526;2023-02-03T03:50:30;3.00;;;1.83;;
19507;SDS011;40157;42.566;27.526;2023-02-03T03:52:34;2.47;;;1.63;;
19507;SDS011;40157;42.566;27.526;2023-02-03T03:54:36;3.37;;;1.73;;
19507;SDS011;40157;42.566;27.526;2023-02-03T03:56:45;4.07;;;2.10;;
19507;SDS011;40157;42.566;27.526;2023-02-03T03:58:50;6.70;;;2.27;;
19507;SDS011;40157;42.566;27.526;2023-02-03T04:00:53;2.53;;;1.80;;
19507;SDS011;40157;42.566;27.526;2023-02-03T04:02:57;3.73;;;1.93;;
19507;SDS011;40157;42.566;27.526;2023-02-03T04:05:01;4.50;;;2.00;;
19507;SDS011;40157;42.566;27.526;2023-02-03T04:07:02;4.50;;;2.13;;
19507;SDS011;40157;42.566;27.526;2023-02-03T04:09:02;3.17;;;1.93;;
19507;SDS011;40157;42.566;27.526;2023-02-03T04:11:04;5.53;;;1.50;;
19507;SDS011;40157;42.566;27.526;2023-02-03T04:13:06;4.00;;;2.00;;
19507;SDS011;40157;42.566;27.526;2023-02-03T04:15:07;5.80;;;2.23;;
19507;SDS011;40157;42.566;27.526;2023-02-03T04:17:08;4.67;;;2.17;;
19507;SDS011;40157;42.566;27.526;2023-02-03T04:19:08;5.30;;;2.00;;
19507;SDS011;40157;42.566;27.526;2023-02-03T04:21:09;5.03;;;2.10;;
19507;SDS011;40157;42.566;27.526;2023-02-03T04:23:09;2.63;;;1.63;;
19507;SDS011;40157;42.566;27.526;2023-02-03T04:25:10;7.97;;;2.43;;
19507;SDS011;40157;42.566;27.526;2023-02-03T04:27:10;4.27;;;1.77;;
19507;SDS011;40157;42.566;27.526;2023-02-03T04:29:10;4.60;;;2.03;;
19507;SDS011;40157;42.566;27.526;2023-02-03T04:31:11;3.60;;;1.77;;
19507;SDS011;40157;42.566;27.526;2023-02-03T04:33:11;3.17;;;1.73;;
19507;SDS011;40157;42.566;27.526;2023-02-03T04:35:12;2.93;;;1.73;;
19507;SDS011;40157;42.566;27.526;2023-02-03T04:37:13;18.30;;;7.30;;
19507;SDS011;40157;42.566;27.526;2023-02-03T04:39:14;38.73;;;16.83;;
19507;SDS011;40157;42.566;27.526;2023-02-03T04:41:14;33.83;;;14.93;;
19507;SDS011;40157;42.566;27.526;2023-02-03T04:43:15;25.00;;;9.30;;
19507;SDS011;40157;42.566;27.526;2023-02-03T04:45:16;15.00;;;7.13;;
19507;SDS011;40157;42.566;27.526;2023-02-03T04:47:16;11.00;;;5.30;;
19507;SDS011;40157;42.566;27.526;2023-02-03T04:49:17;13.63;;;5.73;;
19507;SDS011;40157;42.566;27.526;2023-02-03T04:51:18;9.90;;;5.17;;
19507;SDS011;40157;42.566;27.526;2023-02-03T04:53:18;10.07;;;4.43;;
19507;SDS011;40157;42.566;27.526;2023-02-03T04:55:19;9.60;;;3.73;;
19507;SDS011;40157;42.566;27.526;2023-02-03T04:57:19;5.13;;;3.20;;
19507;SDS011;40157;42.566;27.526;2023-02-03T04:59:20;9.67;;;3.97;;
19507;SDS011;40157;42.566;27.526;2023-02-03T05:01:20;23.47;;;8.23;;
19507;SDS011;40157;42.566;27.526;2023-02-03T05:03:20;18.00;;;5.27;;
19507;SDS011;40157;42.566;27.526;2023-02-03T05:05:21;9.60;;;3.73;;
19507;SDS011;40157;42.566;27.526;2023-02-03T05:07:21;12.80;;;4.97;;
19507;SDS011;40157;42.566;27.526;2023-02-03T05:09:22;16.80;;;6.90;;
19507;SDS011;40157;42.566;27.526;2023-02-03T05:11:23;21.13;;;8.13;;
19507;SDS011;40157;42.566;27.526;2023-02-03T05:13:24;14.83;;;6.10;;
19507;SDS011;40157;42.566;27.526;2023-02-03T05:15:24;9.73;;;5.13;;
19507;SDS011;40157;42.566;27.526;2023-02-03T05:17:25;17.00;;;6.40;;
19507;SDS011;40157;42.566;27.526;2023-02-03T05:19:25;12.73;;;7.27;;
19507;SDS011;40157;42.566;27.526;2023-02-03T05:21:26;18.90;;;8.83;;
19507;SDS011;40157;42.566;27.526;2023-02-03T05:23:26;27.10;;;10.90;;
19507;SDS011;40157;42.566;27.526;2023-02-03T05:25:27;16.03;;;6.33;;
19507;SDS011;40157;42.566;27.526;2023-02-03T05:27:27;15.17;;;6.37;;
19507;SDS011;40157;42.566;27.526;2023-02-03T05:29:28;18.03;;;6.97;;
19507;SDS011;40157;42.566;27.526;2023-02-03T05:31:28;15.13;;;6.63;;
19507;SDS011;40157;42.566;27.526;2023-02-03T05:33:29;12.30;;;4.90;;
19507;SDS011;40157;42.566;27.526;2023-02-03T05:35:29;10.93;;;4.93;;
19507;SDS011;40157;42.566;27.526;2023-02-03T05:37:30;9.60;;;4.20;;
19507;SDS011;40157;42.566;27.526;2023-02-03T05:39:30;6.83;;;2.67;;
19507;SDS011;40157;42.566;27.526;2023-02-03T05:41:31;5.57;;;3.13;;
19507;SDS011;40157;42.566;27.526;2023-02-03T05:43:51;6.57;;;2.30;;
19507;SDS011;40157;42.566;27.526;2023-02-03T05:45:51;10.87;;;5.00;;
19507;SDS011;40157;42.566;27.526;2023-02-03T05:47:52;14.00;;;7.60;;
19507;SDS011;40157;42.566;27.526;2023-02-03T05:49:52;22.73;;;9.23;;
19507;SDS011;40157;42.566;27.526;2023-02-03T05:51:53;10.80;;;5.77;;
19507;SDS011;40157;42.566;27.526;2023-02-03T05:53:54;6.67;;;4.03;;
19507;SDS011;40157;42.566;27.526;2023-02-03T05:55:55;4.77;;;2.40;;
19507;SDS011;40157;42.566;27.526;2023-02-03T05:57:55;3.87;;;2.30;;
19507;SDS011;40157;42.566;27.526;2023-02-03T05:59:56;4.00;;;2.20;;
19507;SDS011;40157;42.566;27.526;2023-02-03T06:01:57;3.97;;;1.90;;
19507;SDS011;40157;42.566;27.526;2023-02-03T06:03:57;3.73;;;2.10;;
19507;SDS011;40157;42.566;27.526;2023-02-03T06:05:58;4.40;;;2.47;;
19507;SDS011;40157;42.566;27.526;2023-02-03T06:07:59;5.63;;;2.70;;
19507;SDS011;40157;42.566;27.526;2023-02-03T06:10:00;5.70;;;2.73;;
19507;SDS011;40157;42.566;27.526;2023-02-03T06:12:00;7.80;;;2.30;;
19507;SDS011;40157;42.566;27.526;2023-02-03T06:14:01;5.97;;;2.60;;
19507;SDS011;40157;42.566;27.526;2023-02-03T06:16:02;5.87;;;2.50;;
19507;SDS011;40157;42.566;27.526;2023-02-03T06:18:02;3.63;;;1.87;;
19507;SDS011;40157;42.566;27.526;2023-02-03T06:20:06;4.60;;;2.83;;
19507;SDS011;40157;42.566;27.526;2023-02-03T06:22:08;5.83;;;2.37;;
19507;SDS011;40157;42.566;27.526;2023-02-03T06:24:08;6.30;;;2.90;;
19507;SDS011;40157;42.566;27.526;2023-02-03T06:26:10;5.57;;;2.50;;
19507;SDS011;40157;42.566;27.526;2023-02-03T06:28:10;5.40;;;2.40;;
19507;SDS011;40157;42.566;27.526;2023-02-03T06:30:10;4.87;;;2.43;;
19507;SDS011;40157;42.566;27.526;2023-02-03T06:32:11;4.00;;;2.50;;
19507;SDS011;40157;42.566;27.526;2023-02-03T06:34:12;8.43;;;3.00;;
19507;SDS011;40157;42.566;27.526;2023-02-03T06:36:12;9.03;;;3.10;;
19507;SDS011;40157;42.566;27.526;2023-02-03T06:38:13;5.33;;;2.47;;
19507;SDS011;40157;42.566;27.526;2023-02-03T06:40:13;6.60;;;2.50;;
19507;SDS011;40157;42.566;27.526;2023-02-03T06:42:13;4.97;;;2.30;;
19507;SDS011;40157;42.566;27.526;2023-02-03T06:44:14;4.77;;;2.60;;
19507;SDS011;40157;42.566;27.526;2023-02-03T06:46:14;4.37;;;2.47;;
19507;SDS011;40157;42.566;27.526;2023-02-03T06:48:15;5.50;;;2.60;;
19507;SDS011;40157;42.566;27.526;2023-02-03T06:50:15;10.60;;;2.83;;
19507;SDS011;40157;42.566;27.526;2023-02-03T06:52:16;12.63;;;4.77;;
19507;SDS011;40157;42.566;27.526;2023-02-03T06:54:17;17.20;;;6.53;;
19507;SDS011;40157;42.566;27.526;2023-02-03T06:56:17;41.57;;;13.97;;
19507;SDS011;40157;42.566;27.526;2023-02-03T06:58:18;51.70;;;16.50;;
19507;SDS011;40157;42.566;27.526;2023-02-03T07:00:18;36.17;;;11.13;;
19507;SDS011;40157;42.566;27.526;2023-02-03T07:02:19;49.10;;;14.03;;
19507;SDS011;40157;42.566;27.526;2023-02-03T07:04:20;37.20;;;12.57;;
19507;SDS011;40157;42.566;27.526;2023-02-03T07:06:21;19.73;;;8.63;;
19507;SDS011;40157;42.566;27.526;2023-02-03T07:08:21;17.90;;;8.47;;
19507;SDS011;40157;42.566;27.526;2023-02-03T07:10:22;13.97;;;7.17;;
19507;SDS011;40157;42.566;27.526;2023-02-03T07:12:22;10.13;;;5.40;;
19507;SDS011;40157;42.566;27.526;2023-02-03T07:14:22;9.10;;;4.40;;
19507;SDS011;40157;42.566;27.526;2023-02-03T07:16:23;10.27;;;4.30;;
19507;SDS011;40157;42.566;27.526;2023-02-03T07:18:23;10.80;;;4.47;;
19507;SDS011;40157;42.566;27.526;2023-02-03T07:20:25;11.97;;;4.57;;
19507;SDS011;40157;42.566;27.526;2023-02-03T07:22:27;10.47;;;5.13;;
19507;SDS011;40157;42.566;27.526;2023-02-03T07:24:28;11.80;;;5.63;;
19507;SDS011;40157;42.566;27.526;2023-02-03T07:26:28;13.23;;;5.40;;
19507;SDS011;40157;42.566;27.526;2023-02-03T07:28:38;10.87;;;4.17;;
19507;SDS011;40157;42.566;27.526;2023-02-03T07:30:38;6.63;;;3.03;;
19507;SDS011;40157;42.566;27.526;2023-02-03T07:32:38;6.90;;;3.60;;
19507;SDS011;40157;42.566;27.526;2023-02-03T07:34:39;7.30;;;2.87;;
19507;SDS011;40157;42.566;27.526;2023-02-03T07:36:39;6.83;;;2.70;;
19507;SDS011;40157;42.566;27.526;2023-02-03T07:38:40;4.23;;;2.10;;
19507;SDS011;40157;42.566;27.526;2023-02-03T07:40:40;4.10;;;2.07;;
19507;SDS011;40157;42.566;27.526;2023-02-03T07:42:41;5.07;;;2.47;;
19507;SDS011;40157;42.566;27.526;2023-02-03T07:44:43;9.90;;;3.67;;
19507;SDS011;40157;42.566;27.526;2023-02-03T07:46:43;8.40;;;4.57;;
19507;SDS011;40157;42.566;27.526;2023-02-03T07:48:44;14.33;;;6.60;;
19507;SDS011;40157;42.566;27.526;2023-02-03T07:50:46;18.97;;;6.73;;
19507;SDS011;40157;42.566;27.526;2023-02-03T07:52:48;19.20;;;6.90;;
19507;SDS011;40157;42.566;27.526;2023-02-03T07:54:49;14.93;;;6.60;;
19507;SDS011;40157;42.566;27.526;2023-02-03T07:56:50;16.60;;;7.30;;
19507;SDS011;40157;42.566;27.526;2023-02-03T07:58:53;15.43;;;6.70;;
19507;SDS011;40157;42.566;27.526;2023-02-03T08:00:53;13.37;;;5.40;;
19507;SDS011;40157;42.566;27.526;2023-02-03T08:02:54;10.33;;;4.43;;
19507;SDS011;40157;42.566;27.526;2023-02-03T08:04:54;12.67;;;4.93;;
19507;SDS011;40157;42.566;27.526;2023-02-03T08:06:56;9.73;;;4.50;;
19507;SDS011;40157;42.566;27.526;2023-02-03T08:08:57;8.63;;;4.77;;
19507;SDS011;40157;42.566;27.526;2023-02-03T08:10:57;26.57;;;8.80;;
19507;SDS011;40157;42.566;27.526;2023-02-03T08:12:58;12.33;;;5.73;;
19507;SDS011;40157;42.566;27.526;2023-02-03T08:14:58;8.57;;;4.23;;
19507;SDS011;40157;42.566;27.526;2023-02-03T08:16:59;7.90;;;3.93;;
19507;SDS011;40157;42.566;27.526;2023-02-03T08:18:59;16.03;;;5.40;;
19507;SDS011;40157;42.566;27.526;2023-02-03T08:21:00;11.20;;;5.07;;
19507;SDS011;40157;42.566;27.526;2023-02-03T08:23:03;11.70;;;5.20;;
19507;SDS011;40157;42.566;27.526;2023-02-03T08:25:04;9.17;;;4.30;;
19507;SDS011;40157;42.566;27.526;2023-02-03T08:27:05;9.20;;;4.00;;
19507;SDS011;40157;42.566;27.526;2023-02-03T08:29:05;11.67;;;6.20;;
19507;SDS011;40157;42.566;27.526;2023-02-03T08:31:10;9.83;;;5.50;;
19507;SDS011;40157;42.566;27.526;2023-02-03T08:33:11;10.70;;;5.57;;
19507;SDS011;40157;42.566;27.526;2023-02-03T08:35:11;11.37;;;5.07;;
19507;SDS011;40157;42.566;27.526;2023-02-03T08:37:12;14.37;;;6.40;;
19507;SDS011;40157;42.566;27.526;2023-02-03T08:39:14;15.70;;;5.97;;
19507;SDS011;40157;42.566;27.526;2023-02-03T08:41:15;13.97;;;6.17;;
19507;SDS011;40157;42.566;27.526;2023-02-03T08:43:19;12.87;;;4.73;;
19507;SDS011;40157;42.566;27.526;2023-02-03T08:45:20;7.00;;;3.03;;
19507;SDS011;40157;42.566;27.526;2023-02-03T08:47:20;6.37;;;4.23;;
19507;SDS011;40157;42.566;27.526;2023-02-03T08:49:21;9.37;;;4.03;;
19507;SDS011;40157;42.566;27.526;2023-02-03T08:51:21;6.17;;;3.03;;
19507;SDS011;40157;42.566;27.526;2023-02-03T08:53:23;4.67;;;2.30;;
19507;SDS011;40157;42.566;27.526;2023-02-03T08:55:25;6.53;;;2.40;;
19507;SDS011;40157;42.566;27.526;2023-02-03T08:57:25;2.90;;;1.63;;
19507;SDS011;40157;42.566;27.526;2023-02-03T08:59:26;9.00;;;2.20;;
19507;SDS011;40157;42.566;27.526;2023-02-03T09:01:27;10.47;;;2.43;;
19507;SDS011;40157;42.566;27.526;2023-02-03T09:03:27;7.07;;;2.20;;
19507;SDS011;40157;42.566;27.526;2023-02-03T09:05:28;3.47;;;2.30;;
19507;SDS011;40157;42.566;27.526;2023-02-03T09:07:29;7.10;;;2.00;;
19507;SDS011;40157;42.566;27.526;2023-02-03T09:09:30;3.97;;;2.00;;
19507;SDS011;40157;42.566;27.526;2023-02-03T09:11:31;4.10;;;2.30;;
19507;SDS011;40157;42.566;27.526;2023-02-03T09:13:31;2.73;;;1.63;;
19507;SDS011;40157;42.566;27.526;2023-02-03T09:15:32;2.37;;;1.70;;
19507;SDS011;40157;42.566;27.526;2023-02-03T09:17:33;4.90;;;1.67;;
19507;SDS011;40157;42.566;27.526;2023-02-03T09:19:33;9.30;;;1.60;;
19507;SDS011;40157;42.566;27.526;2023-02-03T09:21:34;2.53;;;1.43;;
19507;SDS011;40157;42.566;27.526;2023-02-03T09:23:35;4.10;;;1.80;;
19507;SDS011;40157;42.566;27.526;2023-02-03T09:25:36;7.07;;;2.03;;
19507;SDS011;40157;42.566;27.526;2023-02-03T09:27:36;3.47;;;1.70;;
19507;SDS011;40157;42.566;27.526;2023-02-03T09:29:37;3.00;;;1.50;;
19507;SDS011;40157;42.566;27.526;2023-02-03T09:31:37;6.70;;;2.00;;
19507;SDS011;40157;42.566;27.526;2023-02-03T09:33:37;2.60;;;1.50;;
19507;SDS011;40157;42.566;27.526;2023-02-03T09:35:38;6.00;;;2.20;;
19507;SDS011;40157;42.566;27.526;2023-02-03T09:37:39;4.27;;;1.70;;
19507;SDS011;40157;42.566;27.526;2023-02-03T09:39:39;3.77;;;1.50;;
19507;SDS011;40157;42.566;27.526;2023-02-03T09:41:52;2.33;;;1.40;;
19507;SDS011;40157;42.566;27.526;2023-02-03T09:44:16;5.77;;;1.53;;
19507;SDS011;40157;42.566;27.526;2023-02-03T09:46:33;12.83;;;1.87;;
19507;SDS011;40157;42.566;27.526;2023-02-03T09:48:56;2.70;;;1.40;;
19507;SDS011;40157;42.566;27.526;2023-02-03T09:51:01;3.10;;;1.80;;
19507;SDS011;40157;42.566;27.526;2023-02-03T09:53:03;9.37;;;2.10;;
19507;SDS011;40157;42.566;27.526;2023-02-03T09:57:24;3.87;;;1.60;;
19507;SDS011;40157;42.566;27.526;2023-02-03T09:59:26;5.07;;;1.83;;
19507;SDS011;40157;42.566;27.526;2023-02-03T10:01:39;5.00;;;1.80;;
19507;SDS011;40157;42.566;27.526;2023-02-03T10:03:54;3.33;;;1.70;;
19507;SDS011;40157;42.566;27.526;2023-02-03T10:17:39;4.30;;;1.43;;
19507;SDS011;40157;42.566;27.526;2023-02-03T10:19:23;3.87;;;1.80;;
19507;SDS011;40157;42.566;27.526;2023-02-03T10:21:46;9.53;;;1.87;;
19507;SDS011;40157;42.566;27.526;2023-02-03T10:23:51;3.87;;;1.80;;
19507;SDS011;40157;42.566;27.526;2023-02-03T10:25:54;2.17;;;1.63;;
19507;SDS011;40157;42.566;27.526;2023-02-03T10:27:57;4.23;;;1.53;;
19507;SDS011;40157;42.566;27.526;2023-02-03T10:32:06;5.77;;;2.00;;
19507;SDS011;40157;42.566;27.526;2023-02-03T10:34:12;3.07;;;1.77;;
19507;SDS011;40157;42.566;27.526;2023-02-03T10:36:21;2.80;;;1.80;;
19507;SDS011;40157;42.566;27.526;2023-02-03T10:40:52;3.53;;;1.80;;
19507;SDS011;40157;42.566;27.526;2023-02-03T10:42:52;3.73;;;1.90;;
19507;SDS011;40157;42.566;27.526;2023-02-03T10:45:12;4.37;;;1.80;;
19507;SDS011;40157;42.566;27.526;2023-02-03T10:49:24;3.23;;;1.70;;
19507;SDS011;40157;42.566;27.526;2023-02-03T10:51:28;3.03;;;1.77;;
19507;SDS011;40157;42.566;27.526;2023-02-03T10:53:34;3.97;;;2.23;;
19507;SDS011;40157;42.566;27.526;2023-02-03T10:55:35;6.17;;;2.20;;
19507;SDS011;40157;42.566;27.526;2023-02-03T10:57:36;4.57;;;2.10;;
19507;SDS011;40157;42.566;27.526;2023-02-03T10:59:45;4.03;;;1.77;;
19507;SDS011;40157;42.566;27.526;2023-02-03T11:01:46;4.20;;;2.07;;
19507;SDS011;40157;42.566;27.526;2023-02-03T11:03:55;2.30;;;1.80;;
19507;SDS011;40157;42.566;27.526;2023-02-03T11:06:14;3.60;;;2.03;;
19507;SDS011;40157;42.566;27.526;2023-02-03T11:08:16;2.90;;;1.80;;
19507;SDS011;40157;42.566;27.526;2023-02-03T11:12:29;10.90;;;2.60;;
19507;SDS011;40157;42.566;27.526;2023-02-03T11:14:34;4.00;;;2.00;;
19507;SDS011;40157;42.566;27.526;2023-02-03T11:16:37;3.37;;;1.90;;
19507;SDS011;40157;42.566;27.526;2023-02-03T11:18:52;2.60;;;2.00;;
19507;SDS011;40157;42.566;27.526;2023-02-03T11:20:53;7.17;;;2.10;;
19507;SDS011;40157;42.566;27.526;2023-02-03T11:22:53;4.13;;;2.10;;
19507;SDS011;40157;42.566;27.526;2023-02-03T11:24:54;4.63;;;2.00;;
19507;SDS011;40157;42.566;27.526;2023-02-03T11:27:00;5.03;;;2.00;;
19507;SDS011;40157;42.566;27.526;2023-02-03T11:29:05;4.57;;;2.03;;
19507;SDS011;40157;42.566;27.526;2023-02-03T11:33:47;9.93;;;5.00;;
19507;SDS011;40157;42.566;27.526;2023-02-03T11:35:57;6.17;;;2.33;;
19507;SDS011;40157;42.566;27.526;2023-02-03T11:37:59;9.73;;;2.03;;
19507;SDS011;40157;42.566;27.526;2023-02-03T11:42:20;2.17;;;1.50;;
19507;SDS011;40157;42.566;27.526;2023-02-03T11:44:25;2.00;;;1.50;;
19507;SDS011;40157;42.566;27.526;2023-02-03T11:46:28;2.67;;;1.50;;
19507;SDS011;40157;42.566;27.526;2023-02-03T11:48:31;3.90;;;1.43;;
19507;SDS011;40157;42.566;27.526;2023-02-03T12:06:58;3.07;;;1.40;;
19507;SDS011;40157;42.566;27.526;2023-02-03T12:21:32;5.03;;;3.00;;
19507;SDS011;40157;42.566;27.526;2023-02-03T12:26:21;3.80;;;2.20;;
19507;SDS011;40157;42.566;27.526;2023-02-03T12:30:50;46.40;;;17.80;;
19507;SDS011;40157;42.566;27.526;2023-02-03T12:32:59;16.97;;;5.47;;
19507;SDS011;40157;42.566;27.526;2023-02-03T12:35:24;2.83;;;1.73;;
19507;SDS011;40157;42.566;27.526;2023-02-03T12:45:04;6.70;;;1.60;;
19507;SDS011;40157;42.566;27.526;2023-02-03T12:47:23;3.13;;;1.80;;
19507;SDS011;40157;42.566;27.526;2023-02-03T12:49:38;3.83;;;1.80;;
19507;SDS011;40157;42.566;27.526;2023-02-03T12:51:48;5.17;;;1.60;;
19507;SDS011;40157;42.566;27.526;2023-02-03T12:53:54;3.83;;;1.60;;
19507;SDS011;40157;42.566;27.526;2023-02-03T12:56:06;3.10;;;1.60;;
19507;SDS011;40157;42.566;27.526;2023-02-03T12:58:30;2.80;;;1.50;;
19507;SDS011;40157;42.566;27.526;2023-02-03T13:00:45;3.77;;;1.43;;
19507;SDS011;40157;42.566;27.526;2023-02-03T13:05:35;2.33;;;1.60;;
19507;SDS011;40157;42.566;27.526;2023-02-03T13:07:51;2.73;;;1.43;;
19507;SDS011;40157;42.566;27.526;2023-02-03T13:09:58;4.60;;;1.73;;
19507;SDS011;40157;42.566;27.526;2023-02-03T13:12:07;5.27;;;1.97;;
19507;SDS011;40157;42.566;27.526;2023-02-03T13:14:35;2.77;;;1.60;;
19507;SDS011;40157;42.566;27.526;2023-02-03T13:16:41;1.33;;;1.10;;
19507;SDS011;40157;42.566;27.526;2023-02-03T13:18:45;3.03;;;1.60;;
19507;SDS011;40157;42.566;27.526;2023-02-03T13:20:52;1.90;;;1.40;;
19507;SDS011;40157;42.566;27.526;2023-02-03T13:22:53;2.80;;;1.60;;
19507;SDS011;40157;42.566;27.526;2023-02-03T13:25:29;4.03;;;1.80;;
19507;SDS011;40157;42.566;27.526;2023-02-03T13:27:38;2.53;;;1.73;;
19507;SDS011;40157;42.566;27.526;2023-02-03T13:29:44;2.30;;;1.53;;
19507;SDS011;40157;42.566;27.526;2023-02-03T13:34:35;1.60;;;1.30;;
19507;SDS011;40157;42.566;27.526;2023-02-03T13:37:01;2.40;;;1.33;;
19507;SDS011;40157;42.566;27.526;2023-02-03T13:44:09;2.83;;;1.60;;
19507;SDS011;40157;42.566;27.526;2023-02-03T13:46:30;5.23;;;1.83;;
19507;SDS011;40157;42.566;27.526;2023-02-03T13:48:33;2.93;;;1.43;;
19507;SDS011;40157;42.566;27.526;2023-02-03T13:50:34;2.30;;;1.70;;
19507;SDS011;40157;42.566;27.526;2023-02-03T13:54:56;3.43;;;1.90;;
19507;SDS011;40157;42.566;27.526;2023-02-03T13:56:58;4.07;;;1.80;;